CPT4218 PHNL-PHLI
Flight info
| Callsign | CPT4218 |
|---|---|
| Flight time | 0h 35m |
| Altitude | 6000 |
| Route | KEOLA3 LIH |
| Aircraft | C208/L-VGD/C |
Departure
| Time | 2026-04-21 12:39 |
|---|---|
| Airport | Daniel K. Inouye International Airport (PHNL) |
Arrival
| Time | 2026-04-21 13:15 |
|---|---|
| Airport | Lihue Airport (PHLI) |
| Time | Latitude | Longitude | Altitude | Speed | Heading |
|---|---|---|---|---|---|
| 2026-04-21 12:36 | 21.32359 | -157.90885 | 18 ft | 0 kts | 54° |
| 2026-04-21 12:36 | 21.32388 | -157.90899 | 18 ft | 12 kts | 262° |
| 2026-04-21 12:36 | 21.32398 | -157.91010 | 18 ft | 14 kts | 302° |
| 2026-04-21 12:37 | 21.32376 | -157.91117 | 18 ft | 21 kts | 230° |
| 2026-04-21 12:37 | 21.32243 | -157.91290 | 18 ft | 38 kts | 235° |
| 2026-04-21 12:37 | 21.32092 | -157.91502 | 18 ft | 31 kts | 234° |
| 2026-04-21 12:37 | 21.31913 | -157.91686 | 18 ft | 40 kts | 224° |
| 2026-04-21 12:38 | 21.31802 | -157.91834 | 18 ft | 44 kts | 232° |
| 2026-04-21 12:38 | 21.31618 | -157.92103 | 18 ft | 23 kts | 254° |
| 2026-04-21 12:38 | 21.31675 | -157.92178 | 18 ft | 23 kts | 322° |
| 2026-04-21 12:38 | 21.31777 | -157.92170 | 18 ft | 23 kts | 53° |
| 2026-04-21 12:39 | 21.32033 | -157.91807 | 18 ft | 98 kts | 51° |
| 2026-04-21 12:39 | 21.32431 | -157.91240 | 170 ft | 118 kts | 58° |
| 2026-04-21 12:39 | 21.32936 | -157.90553 | 669 ft | 118 kts | 54° |
| 2026-04-21 12:39 | 21.33535 | -157.89845 | 883 ft | 139 kts | 52° |
| 2026-04-21 12:40 | 21.34405 | -157.89338 | 1135 ft | 154 kts | 13° |
| 2026-04-21 12:40 | 21.35437 | -157.89659 | 1394 ft | 163 kts | 323° |
| 2026-04-21 12:40 | 21.35982 | -157.90725 | 1666 ft | 164 kts | 276° |
| 2026-04-21 12:40 | 21.35724 | -157.91877 | 1862 ft | 165 kts | 236° |
| 2026-04-21 12:41 | 21.34762 | -157.92446 | 1521 ft | 158 kts | 187° |
| 2026-04-21 12:41 | 21.33771 | -157.92106 | 1184 ft | 148 kts | 150° |
| 2026-04-21 12:41 | 21.32868 | -157.91907 | 1194 ft | 130 kts | 175° |
| 2026-04-21 12:41 | 21.32059 | -157.92366 | 757 ft | 154 kts | 232° |
| 2026-04-21 12:42 | 21.31893 | -157.93484 | 703 ft | 144 kts | 265° |
| 2026-04-21 12:42 | 21.31908 | -157.94520 | 749 ft | 137 kts | 266° |
| 2026-04-21 12:42 | 21.31767 | -157.95490 | 586 ft | 138 kts | 232° |
| 2026-04-21 12:42 | 21.30963 | -157.95743 | 396 ft | 117 kts | 156° |
| 2026-04-21 12:43 | 21.30656 | -157.95039 | 177 ft | 116 kts | 86° |
| 2026-04-21 12:43 | 21.30680 | -157.94223 | 31 ft | 104 kts | 94° |
| 2026-04-21 12:43 | 21.30673 | -157.93567 | 18 ft | 54 kts | 92° |
| 2026-04-21 12:43 | 21.30676 | -157.93450 | 18 ft | 0 kts | 86° |
| 2026-04-21 12:44 | 21.30674 | -157.93184 | 18 ft | 78 kts | 89° |
| 2026-04-21 12:44 | 21.30668 | -157.92433 | 170 ft | 109 kts | 94° |
| 2026-04-21 12:44 | 21.30278 | -157.91825 | 452 ft | 113 kts | 172° |
| 2026-04-21 12:44 | 21.29531 | -157.92138 | 975 ft | 105 kts | 211° |
| 2026-04-21 12:45 | 21.29117 | -157.92846 | 1251 ft | 137 kts | 252° |
| 2026-04-21 12:45 | 21.29294 | -157.93876 | 1690 ft | 143 kts | 286° |
| 2026-04-21 12:45 | 21.29641 | -157.94921 | 1982 ft | 154 kts | 288° |
| 2026-04-21 12:45 | 21.30018 | -157.96036 | 2254 ft | 162 kts | 288° |
| 2026-04-21 12:46 | 21.30404 | -157.97195 | 2520 ft | 168 kts | 288° |
| 2026-04-21 12:46 | 21.30767 | -157.98380 | 2801 ft | 171 kts | 285° |
| 2026-04-21 12:46 | 21.31029 | -157.99635 | 3070 ft | 174 kts | 279° |
| 2026-04-21 12:46 | 21.31184 | -158.00920 | 3332 ft | 177 kts | 272° |
| 2026-04-21 12:47 | 21.31262 | -158.02255 | 3598 ft | 178 kts | 270° |
| 2026-04-21 12:47 | 21.31290 | -158.03591 | 3855 ft | 180 kts | 268° |
| 2026-04-21 12:47 | 21.31287 | -158.04937 | 4113 ft | 181 kts | 267° |
| 2026-04-21 12:47 | 21.31284 | -158.06281 | 4386 ft | 180 kts | 266° |
| 2026-04-21 12:48 | 21.31250 | -158.07632 | 4645 ft | 181 kts | 265° |
| 2026-04-21 12:48 | 21.31212 | -158.08979 | 4884 ft | 181 kts | 266° |
| 2026-04-21 12:48 | 21.31174 | -158.10328 | 5109 ft | 182 kts | 266° |
| 2026-04-21 12:48 | 21.31128 | -158.11687 | 5357 ft | 180 kts | 266° |
| 2026-04-21 12:49 | 21.31084 | -158.13005 | 5604 ft | 181 kts | 266° |
| 2026-04-21 12:49 | 21.31036 | -158.14357 | 5854 ft | 182 kts | 266° |
| 2026-04-21 12:49 | 21.30978 | -158.15732 | 5989 ft | 187 kts | 265° |
| 2026-04-21 12:49 | 21.30930 | -158.17154 | 6023 ft | 195 kts | 266° |
| 2026-04-21 12:50 | 21.30873 | -158.18620 | 6045 ft | 198 kts | 265° |
| 2026-04-21 12:50 | 21.30820 | -158.20111 | 6038 ft | 203 kts | 266° |
| 2026-04-21 12:50 | 21.30767 | -158.21632 | 6039 ft | 204 kts | 266° |
| 2026-04-21 12:50 | 21.30726 | -158.23143 | 6003 ft | 206 kts | 267° |
| 2026-04-21 12:51 | 21.30680 | -158.24668 | 6031 ft | 206 kts | 267° |
| 2026-04-21 12:51 | 21.30626 | -158.26210 | 6005 ft | 206 kts | 266° |
| 2026-04-21 12:51 | 21.30572 | -158.27746 | 5980 ft | 207 kts | 266° |
| 2026-04-21 12:51 | 21.30513 | -158.29275 | 6005 ft | 205 kts | 266° |
| 2026-04-21 12:52 | 21.30455 | -158.30773 | 6012 ft | 205 kts | 266° |
| 2026-04-21 12:52 | 21.30397 | -158.32310 | 6014 ft | 205 kts | 266° |
| 2026-04-21 12:52 | 21.30345 | -158.33846 | 6010 ft | 205 kts | 266° |
| 2026-04-21 12:52 | 21.30294 | -158.35396 | 6010 ft | 205 kts | 266° |
| 2026-04-21 12:53 | 21.30244 | -158.36904 | 6010 ft | 205 kts | 266° |
| 2026-04-21 12:53 | 21.30191 | -158.38435 | 6010 ft | 205 kts | 266° |
| 2026-04-21 12:53 | 21.30138 | -158.39963 | 6010 ft | 205 kts | 266° |
| 2026-04-21 12:53 | 21.30084 | -158.41494 | 6010 ft | 205 kts | 266° |
| 2026-04-21 12:54 | 21.30029 | -158.43021 | 6011 ft | 205 kts | 266° |
| 2026-04-21 12:54 | 21.29975 | -158.44549 | 6011 ft | 205 kts | 266° |
| 2026-04-21 12:54 | 21.29920 | -158.46059 | 6011 ft | 205 kts | 266° |
| 2026-04-21 12:54 | 21.29894 | -158.47589 | 6007 ft | 206 kts | 273° |
| 2026-04-21 12:55 | 21.30247 | -158.49071 | 6018 ft | 206 kts | 290° |
| 2026-04-21 12:55 | 21.30846 | -158.50466 | 6014 ft | 206 kts | 297° |
| 2026-04-21 12:55 | 21.31537 | -158.51817 | 6012 ft | 206 kts | 300° |
| 2026-04-21 12:55 | 21.32264 | -158.53141 | 6016 ft | 206 kts | 301° |
| 2026-04-21 12:56 | 21.33009 | -158.54457 | 6022 ft | 206 kts | 301° |
| 2026-04-21 12:56 | 21.33760 | -158.55767 | 6023 ft | 206 kts | 302° |
| 2026-04-21 12:56 | 21.34517 | -158.57075 | 6024 ft | 206 kts | 302° |
| 2026-04-21 12:56 | 21.35275 | -158.58382 | 6024 ft | 206 kts | 302° |
| 2026-04-21 12:57 | 21.36025 | -158.59671 | 6024 ft | 206 kts | 302° |
| 2026-04-21 12:57 | 21.36785 | -158.60976 | 6024 ft | 206 kts | 302° |
| 2026-04-21 12:57 | 21.37547 | -158.62282 | 6024 ft | 207 kts | 302° |
| 2026-04-21 12:57 | 21.38309 | -158.63590 | 6024 ft | 207 kts | 302° |
| 2026-04-21 12:58 | 21.39070 | -158.64894 | 6024 ft | 207 kts | 302° |
| 2026-04-21 12:58 | 21.39832 | -158.66201 | 6024 ft | 207 kts | 302° |
| 2026-04-21 12:58 | 21.40594 | -158.67509 | 6025 ft | 207 kts | 302° |
| 2026-04-21 12:58 | 21.41346 | -158.68799 | 6025 ft | 207 kts | 302° |
| 2026-04-21 12:59 | 21.42107 | -158.70105 | 6025 ft | 207 kts | 302° |
| 2026-04-21 12:59 | 21.42868 | -158.71412 | 6025 ft | 207 kts | 302° |
| 2026-04-21 12:59 | 21.43629 | -158.72719 | 6025 ft | 207 kts | 302° |
| 2026-04-21 12:59 | 21.44391 | -158.74026 | 6025 ft | 207 kts | 302° |
| 2026-04-21 13:00 | 21.45152 | -158.75335 | 6025 ft | 207 kts | 302° |
| 2026-04-21 13:00 | 21.45913 | -158.76642 | 6025 ft | 207 kts | 302° |
| 2026-04-21 13:00 | 21.46673 | -158.77948 | 6025 ft | 207 kts | 302° |
| 2026-04-21 13:00 | 21.47433 | -158.79255 | 6026 ft | 207 kts | 302° |
| 2026-04-21 13:01 | 21.48185 | -158.80548 | 6026 ft | 207 kts | 302° |
| 2026-04-21 13:01 | 21.48946 | -158.81856 | 6028 ft | 206 kts | 302° |
| 2026-04-21 13:01 | 21.49706 | -158.83165 | 6032 ft | 206 kts | 302° |
| 2026-04-21 13:01 | 21.50465 | -158.84471 | 6033 ft | 206 kts | 302° |
| 2026-04-21 13:02 | 21.51226 | -158.85778 | 6033 ft | 206 kts | 302° |
| 2026-04-21 13:02 | 21.51987 | -158.87085 | 6033 ft | 207 kts | 302° |
| 2026-04-21 13:02 | 21.53500 | -158.89684 | 6033 ft | 207 kts | 302° |
| 2026-04-21 13:03 | 21.54261 | -158.90993 | 6032 ft | 207 kts | 302° |
| 2026-04-21 13:03 | 21.55020 | -158.92307 | 6043 ft | 208 kts | 302° |
| 2026-04-21 13:03 | 21.55776 | -158.93623 | 6035 ft | 208 kts | 302° |
| 2026-04-21 13:03 | 21.56548 | -158.94932 | 6033 ft | 206 kts | 302° |
| 2026-04-21 13:04 | 21.57320 | -158.96237 | 6019 ft | 207 kts | 302° |
| 2026-04-21 13:04 | 21.58082 | -158.97550 | 6014 ft | 207 kts | 302° |
| 2026-04-21 13:04 | 21.58834 | -158.98865 | 6037 ft | 206 kts | 302° |
| 2026-04-21 13:04 | 21.59585 | -159.00158 | 6027 ft | 207 kts | 302° |
| 2026-04-21 13:05 | 21.60358 | -159.01484 | 6038 ft | 207 kts | 303° |
| 2026-04-21 13:05 | 21.61115 | -159.02779 | 6036 ft | 208 kts | 302° |
| 2026-04-21 13:05 | 21.61879 | -159.04098 | 6037 ft | 207 kts | 302° |
| 2026-04-21 13:05 | 21.62641 | -159.05411 | 6027 ft | 208 kts | 302° |
| 2026-04-21 13:06 | 21.63406 | -159.06732 | 6029 ft | 207 kts | 302° |
| 2026-04-21 13:06 | 21.64160 | -159.08033 | 6030 ft | 207 kts | 302° |
| 2026-04-21 13:06 | 21.64927 | -159.09355 | 6030 ft | 207 kts | 302° |
| 2026-04-21 13:06 | 21.65687 | -159.10667 | 6030 ft | 207 kts | 302° |
| 2026-04-21 13:07 | 21.66436 | -159.11958 | 6030 ft | 207 kts | 302° |
| 2026-04-21 13:07 | 21.67197 | -159.13273 | 6030 ft | 207 kts | 302° |
| 2026-04-21 13:07 | 21.67957 | -159.14584 | 6030 ft | 207 kts | 302° |
| 2026-04-21 13:07 | 21.68715 | -159.15894 | 6030 ft | 207 kts | 302° |
| 2026-04-21 13:08 | 21.69474 | -159.17205 | 6030 ft | 207 kts | 302° |
| 2026-04-21 13:08 | 21.70234 | -159.18517 | 6030 ft | 207 kts | 302° |
| 2026-04-21 13:08 | 21.70994 | -159.19830 | 6030 ft | 207 kts | 302° |
| 2026-04-21 13:08 | 21.71753 | -159.21144 | 6030 ft | 207 kts | 302° |
| 2026-04-21 13:09 | 21.72511 | -159.22454 | 6030 ft | 207 kts | 302° |
| 2026-04-21 13:09 | 21.72982 | -159.23193 | 6024 ft | 207 kts | 310° |
| 2026-04-21 13:09 | 21.74077 | -159.24174 | 6035 ft | 205 kts | 328° |
| 2026-04-21 13:09 | 21.75324 | -159.24910 | 6032 ft | 204 kts | 335° |
| 2026-04-21 13:10 | 21.76634 | -159.25548 | 5825 ft | 208 kts | 338° |
| 2026-04-21 13:10 | 21.77972 | -159.26142 | 5583 ft | 208 kts | 339° |
| 2026-04-21 13:10 | 21.79325 | -159.26718 | 5338 ft | 209 kts | 340° |
| 2026-04-21 13:10 | 21.80674 | -159.27281 | 5095 ft | 208 kts | 340° |
| 2026-04-21 13:11 | 21.81685 | -159.27700 | 4912 ft | 208 kts | 340° |
| 2026-04-21 13:11 | 21.82734 | -159.28133 | 4721 ft | 208 kts | 340° |
| 2026-04-21 13:11 | 21.84068 | -159.28682 | 4477 ft | 201 kts | 340° |
| 2026-04-21 13:11 | 21.85322 | -159.29199 | 4216 ft | 185 kts | 340° |
| 2026-04-21 13:12 | 21.86474 | -159.29674 | 3960 ft | 174 kts | 340° |
| 2026-04-21 13:12 | 21.87561 | -159.30231 | 3525 ft | 176 kts | 329° |
| 2026-04-21 13:12 | 21.88575 | -159.31013 | 2940 ft | 183 kts | 323° |
| 2026-04-21 13:12 | 21.89602 | -159.31835 | 2469 ft | 181 kts | 325° |
| 2026-04-21 13:13 | 21.90655 | -159.32607 | 2016 ft | 177 kts | 328° |
| 2026-04-21 13:13 | 21.91749 | -159.33237 | 1534 ft | 175 kts | 339° |
| 2026-04-21 13:13 | 21.92922 | -159.33500 | 1099 ft | 171 kts | 358° |
| 2026-04-21 13:13 | 21.94099 | -159.33567 | 726 ft | 160 kts | 359° |
| 2026-04-21 13:14 | 21.95162 | -159.33599 | 437 ft | 133 kts | 1° |
| 2026-04-21 13:14 | 21.96027 | -159.33595 | 236 ft | 114 kts | 2° |
| 2026-04-21 13:14 | 21.96762 | -159.33592 | 161 ft | 100 kts | 1° |
| 2026-04-21 13:14 | 21.97395 | -159.33588 | 158 ft | 83 kts | 1° |
| 2026-04-21 13:15 | 21.97853 | -159.33643 | 158 ft | 34 kts | 320° |
| 2026-04-21 13:15 | 21.97946 | -159.33726 | 158 ft | 6 kts | 277° |
| 2026-04-21 13:15 | 21.97945 | -159.33795 | 158 ft | 15 kts | 269° |
| 2026-04-21 13:15 | 21.97948 | -159.33982 | 158 ft | 33 kts | 269° |
| 2026-04-21 13:16 | 21.97944 | -159.34249 | 158 ft | 41 kts | 270° |
| 2026-04-21 13:16 | 21.97831 | -159.34477 | 158 ft | 37 kts | 221° |
| 2026-04-21 13:16 | 21.97716 | -159.34611 | 158 ft | 5 kts | 278° |
| 2026-04-21 13:16 | 21.97792 | -159.34719 | 158 ft | 22 kts | 289° |
| 2026-04-21 13:17 | 21.97701 | -159.34874 | 158 ft | 34 kts | 225° |
| 2026-04-21 13:17 | 21.97567 | -159.34990 | 158 ft | 13 kts | 162° |
| 2026-04-21 13:17 | 21.97555 | -159.34970 | 158 ft | 0 kts | 45° |
| 2026-04-21 13:17 | 21.97555 | -159.34969 | 158 ft | 0 kts | 45° |
| 2026-04-21 13:19 | 21.97556 | -159.34969 | 158 ft | 0 kts | 44° |
| 2026-04-21 13:19 | 21.97556 | -159.34968 | 158 ft | 0 kts | 44° |
| 2026-04-21 13:20 | 21.97557 | -159.34968 | 158 ft | 0 kts | 44° |